Flight Track Log - Related Links

Times and Time Zones

All times are in EDT time to prevent confusion due to time zone crossing. See the UAL383 flight status page for this flight to view local times or setup timezone preferences in your user account.


Time Position Orientation Groundspeed Altitude Reporting Facility
EDT Latitude Longitude Course Direction KTS MPH feet Rate Location/Type
Mon 04:13:31 AM 21.3167 -157.9000 105° East 200 230 1,200  Level Honolulu Center
Mon 04:14:31 AM 21.2500 -157.8667 155° Southeast 230 265 3,000 2,100 Climbing Honolulu Center
Mon 04:15:31 AM 21.2000 -157.8333 148° Southeast 250 288 5,400 2,231 Climbing Honolulu Center
Mon 04:16:32 AM 21.1833 -157.7500 102° East 270 311 7,500 2,132 Climbing Honolulu Center
Mon 04:17:00 AM 21.1836 -157.4012 102° East  Level FlightAware Approximate
Mon 04:17:32 AM 21.2000 -157.6667 78° East 270 311 9,700  Level Honolulu Center
Mon 04:18:00 AM 21.1592 -157.2701 105° East  Level FlightAware Approximate
Mon 04:18:32 AM 21.2167 -157.5833 78° East 300 345 10,900  Level Honolulu Center
Mon 04:19:33 AM 21.2333 -157.4833 80° East 350 403 11,900 1,438 Climbing Honolulu Center
Mon 04:20:33 AM 21.2333 -157.3667 90° East 370 426 13,800 1,800 Climbing Honolulu Center
Mon 04:21:33 AM 21.2667 -157.2667 70° East 380 437 15,500 1,537 Climbing Honolulu Center
Mon 04:22:34 AM 21.2833 -157.1500 81° East 390 449 16,900 1,388 Climbing Honolulu Center
Mon 04:23:34 AM 21.3167 -157.0333 73° East 400 460 18,300 1,350 Climbing Honolulu Center
Mon 04:24:34 AM 21.3333 -156.9167 81° East 410 472 19,600 1,240 Climbing Honolulu Center
Mon 04:25:35 AM 21.3667 -156.7833 75° East 420 483 20,800 1,140 Climbing Honolulu Center
Mon 04:26:35 AM 21.3833 -156.6667 81° East 430 495 21,900 1,091 Climbing Honolulu Center
Mon 04:27:36 AM 21.4167 -156.5333 75° East 440 506 23,000 1,041 Climbing Honolulu Center
Mon 04:28:36 AM 21.4500 -156.4000 75° East 450 518 24,000 1,000 Climbing Honolulu Center
Mon 04:29:36 AM 21.4667 -156.2667 82° East 460 529 25,000 1,041 Climbing Honolulu Center
Mon 04:30:37 AM 21.5000 -156.1333 75° East 470 541 26,100 1,041 Climbing Honolulu Center
Mon 04:31:37 AM 21.5333 -156.0000 75° East 470 541 27,100 1,000 Climbing Honolulu Center
Mon 04:32:37 AM 21.5667 -155.8667 75° East 480 552 28,100 843 Climbing Honolulu Center
Mon 04:33:38 AM 21.5833 -155.7167 83° East 480 552 28,800 942 Climbing Honolulu Center
Mon 04:34:38 AM 21.6167 -155.5833 75° East 480 552 30,000 1,000 Climbing Honolulu Center
Mon 04:35:38 AM 21.6500 -155.4333 77° East 480 552 30,800 744 Climbing Honolulu Center
Mon 04:36:39 AM 21.6833 -155.3000 75° East 480 552 31,500 694 Climbing Honolulu Center
Mon 04:37:39 AM 21.7000 -155.1500 83° East 490 564 32,200 694 Climbing Honolulu Center
Mon 04:38:40 AM 21.7333 -155.0167 75° East 490 564 32,900 645 Climbing Honolulu Center
Mon 04:39:40 AM 21.7667 -154.8667 77° East 500 575 33,500 650 Climbing Honolulu Center
Mon 04:40:40 AM 21.8000 -154.7167 77° East 490 564 34,200 744 Climbing Honolulu Center
Mon 04:41:41 AM 21.8167 -154.5833 82° East 490 564 35,000 397 Climbing Honolulu Center
Mon 04:42:41 AM 21.8500 -154.4333 77° East 480 552 35,000  Level Honolulu Center
Mon 04:43:41 AM 21.8833 -154.3000 75° East 480 552 35,000  Level Honolulu Center
Mon 04:44:42 AM 21.9000 -154.1500 83° East 480 552 35,000  Level Honolulu Center
Mon 04:45:42 AM 21.9333 -154.0167 75° East 480 552 35,000  Level Honolulu Center
Mon 04:46:43 AM 21.9667 -153.8667 76° East 480 552 35,000  Level Honolulu Center
Mon 04:47:43 AM 21.9833 -153.7333 82° East 480 552 35,000  Level Honolulu Center
Mon 04:49:00 AM 22.0096 -153.5626 81° East  Level FlightAware Approximate
Mon 04:56:00 AM 22.1975 -152.6445 78° East  Level FlightAware Approximate
Mon 04:57:00 AM 22.2225 -152.5121 78° East  Level FlightAware Approximate
Mon 04:58:00 AM 22.2473 -152.3798 79° East  Level FlightAware Approximate
Mon 04:59:00 AM 22.2720 -152.2474 79° East  Level FlightAware Approximate
Mon 05:00:00 AM 22.2967 -152.1149 79° East  Level FlightAware Approximate
Mon 05:01:00 AM 22.3212 -151.9824 79° East  Level FlightAware Approximate
Mon 05:02:00 AM 22.3484 -151.8526 62° Northeast  Level FlightAware Approximate
Mon 05:02:52 AM 22.3500 -151.8833 62° Northeast 452 520 35,000  Level Oakland Oceanic (ODAPS)
Mon 05:03:00 AM 22.4070 -151.7332 62° Northeast  Level FlightAware Approximate
Mon 05:04:00 AM 22.4656 -151.6136 62° Northeast  Level FlightAware Approximate
Mon 05:05:00 AM 22.5240 -151.4940 62° Northeast  Level FlightAware Approximate
Mon 05:06:00 AM 22.5823 -151.3743 62° Northeast  Level FlightAware Approximate
Mon 05:07:00 AM 22.6406 -151.2544 62° Northeast  Level FlightAware Approximate
Mon 05:08:00 AM 22.6987 -151.1345 62° Northeast  Level FlightAware Approximate
Mon 05:09:00 AM 22.8760 -150.8018 62° Northeast 452 520 35,000  Level FlightAware Transoceanic
Mon 05:10:00 AM 22.9340 -150.6811 62° Northeast 452 520 35,000  Level FlightAware Transoceanic
Mon 05:11:00 AM 22.9919 -150.5603 63° Northeast 452 520 35,000  Level FlightAware Transoceanic
Mon 05:12:00 AM 23.0498 -150.4395 63° Northeast 452 520 35,000  Level FlightAware Transoceanic
Mon 05:13:00 AM 23.1075 -150.3185 63° Northeast 452 520 35,000  Level FlightAware Transoceanic
Mon 05:14:00 AM 23.1651 -150.1974 63° Northeast 452 520 35,000  Level FlightAware Transoceanic
Mon 05:15:00 AM 23.2227 -150.0762 63° Northeast 452 520 35,000  Level FlightAware Transoceanic
Mon 05:16:00 AM 23.2801 -149.9549 63° Northeast 452 520 35,000  Level FlightAware Transoceanic
Mon 05:17:00 AM 23.3375 -149.8335 63° Northeast 452 520 35,000  Level FlightAware Transoceanic
Mon 05:18:00 AM 23.3947 -149.7119 63° Northeast 452 520 35,000  Level FlightAware Transoceanic
Mon 05:19:00 AM 23.4519 -149.5903 63° Northeast 452 520 35,000  Level FlightAware Transoceanic
Mon 05:20:00 AM 23.5089 -149.4686 63° Northeast 452 520 35,000  Level FlightAware Transoceanic
Mon 05:21:00 AM 23.5659 -149.3468 63° Northeast 452 520 35,000  Level FlightAware Transoceanic
Mon 05:22:00 AM 23.6228 -149.2248 63° Northeast 452 520 35,000  Level FlightAware Transoceanic
Mon 05:23:00 AM 23.6796 -149.1028 63° Northeast 452 520 35,000  Level FlightAware Transoceanic
Mon 05:24:00 AM 23.7363 -148.9806 63° Northeast 452 520 35,000  Level FlightAware Transoceanic
Mon 05:25:00 AM 23.7929 -148.8584 63° Northeast 452 520 35,000  Level FlightAware Transoceanic
Mon 05:26:00 AM 23.8494 -148.7360 63° Northeast 452 520 35,000  Level FlightAware Transoceanic
Mon 05:27:00 AM 23.9058 -148.6136 63° Northeast 452 520 35,000  Level FlightAware Transoceanic
Mon 05:28:00 AM 23.9621 -148.4910 63° Northeast 452 520 35,000  Level FlightAware Transoceanic
Mon 05:29:00 AM 24.0183 -148.3683 63° Northeast 452 520 35,000  Level FlightAware Transoceanic
Mon 05:30:00 AM 24.0744 -148.2455 63° Northeast 452 520 35,000  Level FlightAware Transoceanic
Mon 05:31:00 AM 24.1304 -148.1226 63° Northeast 452 520 35,000  Level FlightAware Transoceanic
Mon 05:32:00 AM 24.1863 -147.9996 64° Northeast 452 520 35,000  Level FlightAware Transoceanic
Mon 05:33:00 AM 24.2421 -147.8765 64° Northeast 452 520 35,000  Level FlightAware Transoceanic
Mon 05:34:00 AM 24.2978 -147.7533 64° Northeast 452 520 35,000  Level FlightAware Transoceanic
Mon 05:35:00 AM 24.3535 -147.6299 64° Northeast 452 520 35,000  Level FlightAware Transoceanic
Mon 05:36:00 AM 24.4090 -147.5065 64° Northeast 452 520 35,000  Level FlightAware Transoceanic
Mon 05:37:00 AM 24.4644 -147.3830 64° Northeast 452 520 35,000  Level FlightAware Transoceanic
Mon 05:38:00 AM 24.5197 -147.2593 64° Northeast 452 520 35,000  Level FlightAware Transoceanic
Mon 05:39:00 AM 24.5749 -147.1355 64° Northeast 452 520 35,000  Level FlightAware Transoceanic
Mon 05:40:00 AM 24.6300 -147.0117 64° Northeast 452 520 35,000  Level FlightAware Transoceanic
Mon 05:41:00 AM 24.6850 -146.8877 64° Northeast 452 520 35,000  Level FlightAware Transoceanic
Mon 05:42:00 AM 24.7399 -146.7636 64° Northeast 452 520 35,000  Level FlightAware Transoceanic
Mon 05:43:00 AM 24.7947 -146.6394 64° Northeast 452 520 35,000  Level FlightAware Transoceanic
Mon 05:44:00 AM 24.8494 -146.5151 64° Northeast 452 520 35,000  Level FlightAware Transoceanic
Mon 05:45:00 AM 24.9040 -146.3907 64° Northeast 452 520 35,000  Level FlightAware Transoceanic
Mon 05:46:00 AM 24.9585 -146.2662 64° Northeast 452 520 35,000  Level FlightAware Transoceanic
Mon 05:47:00 AM 25.0129 -146.1415 64° Northeast 452 520 35,000  Level FlightAware Transoceanic
Mon 05:48:00 AM 25.0672 -146.0168 64° Northeast 452 520 35,000  Level FlightAware Transoceanic
Mon 05:49:00 AM 25.1214 -145.8919 64° Northeast 452 520 35,000  Level FlightAware Transoceanic
Mon 05:50:00 AM 25.1755 -145.7669 64° Northeast 452 520 35,000  Level FlightAware Transoceanic
Mon 05:51:00 AM 25.2295 -145.6419 65° Northeast 452 520 35,000  Level FlightAware Transoceanic
Mon 05:52:00 AM 25.2833 -145.5167 65° Northeast 452 520 35,000  Level FlightAware Transoceanic
Mon 05:53:00 AM 25.3379 -145.3889 65° Northeast 452 520 35,000  Level FlightAware Transoceanic
Mon 05:53:18 AM 25.2833 -145.5167 65° Northeast 468 539 35,000  Level Oakland Oceanic (ODAPS)
Mon 05:54:00 AM 25.3923 -145.2610 65° Northeast 452 520 35,000  Level FlightAware Transoceanic
Mon 05:55:00 AM 25.4466 -145.1329 65° Northeast 452 520 35,000  Level FlightAware Transoceanic
Mon 05:56:00 AM 25.5009 -145.0048 65° Northeast 452 520 35,000  Level FlightAware Transoceanic
Mon 05:57:00 AM 25.5550 -144.8766 65° Northeast 452 520 35,000  Level FlightAware Transoceanic
Mon 05:58:00 AM 25.6089 -144.7482 65° Northeast 452 520 35,000  Level FlightAware Transoceanic
Mon 05:59:00 AM 25.6703 -144.6017 65° Northeast 468 539 35,000  Level FlightAware Transoceanic
Mon 06:00:00 AM 25.7252 -144.4705 65° Northeast 468 539 35,000  Level FlightAware Transoceanic
Mon 06:01:00 AM 25.7799 -144.3392 65° Northeast 468 539 35,000  Level FlightAware Transoceanic
Mon 06:02:00 AM 25.8345 -144.2078 65° Northeast 468 539 35,000  Level FlightAware Transoceanic
Mon 06:03:00 AM 25.8889 -144.0762 65° Northeast 468 539 35,000  Level FlightAware Transoceanic
Mon 06:04:00 AM 25.9433 -143.9446 65° Northeast 468 539 35,000  Level FlightAware Transoceanic
Mon 06:05:00 AM 25.9975 -143.8128 65° Northeast 468 539 35,000  Level FlightAware Transoceanic
Mon 06:06:00 AM 26.0516 -143.6809 65° Northeast 468 539 35,000  Level FlightAware Transoceanic
Mon 06:07:00 AM 26.1056 -143.5488 66° East 468 539 35,000  Level FlightAware Transoceanic
Mon 06:08:00 AM 26.1595 -143.4167 66° East 468 539 35,000  Level FlightAware Transoceanic
Mon 06:09:00 AM 26.2132 -143.2844 66° East 468 539 35,000  Level FlightAware Transoceanic
Mon 06:10:00 AM 26.2669 -143.1520 66° East 468 539 35,000  Level FlightAware Transoceanic
Mon 06:11:00 AM 26.3204 -143.0195 66° East 468 539 35,000  Level FlightAware Transoceanic
Mon 06:12:00 AM 26.3738 -142.8868 66° East 468 539 35,000  Level FlightAware Transoceanic
Mon 06:13:00 AM 26.4270 -142.7540 66° East 468 539 35,000  Level FlightAware Transoceanic
Mon 06:14:00 AM 26.4802 -142.6212 66° East 468 539 35,000  Level FlightAware Transoceanic
Mon 06:15:00 AM 26.5332 -142.4881 66° East 468 539 35,000  Level FlightAware Transoceanic
Mon 06:16:00 AM 26.5861 -142.3550 66° East 468 539 35,000  Level FlightAware Transoceanic
Mon 06:17:00 AM 26.6389 -142.2217 66° East 468 539 35,000  Level FlightAware Transoceanic
Mon 06:18:00 AM 26.6915 -142.0884 66° East 468 539 35,000  Level FlightAware Transoceanic
Mon 06:19:00 AM 26.7440 -141.9548 66° East 468 539 35,000  Level FlightAware Transoceanic
Mon 06:20:00 AM 26.7964 -141.8212 66° East 468 539 35,000  Level FlightAware Transoceanic
Mon 06:21:00 AM 26.8487 -141.6875 66° East 468 539 35,000  Level FlightAware Transoceanic
Mon 06:22:00 AM 26.9008 -141.5536 66° East 468 539 35,000  Level FlightAware Transoceanic
Mon 06:23:00 AM 26.9529 -141.4196 67° East 468 539 35,000  Level FlightAware Transoceanic
Mon 06:24:00 AM 27.0047 -141.2855 67° East 468 539 35,000  Level FlightAware Transoceanic
Mon 06:25:00 AM 27.0565 -141.1512 67° East 468 539 35,000  Level FlightAware Transoceanic
Mon 06:26:00 AM 27.1082 -141.0168 67° East 468 539 35,000  Level FlightAware Transoceanic
Mon 06:27:00 AM 27.1597 -140.8824 67° East 468 539 35,000  Level FlightAware Transoceanic
Mon 06:28:00 AM 27.2110 -140.7477 67° East 468 539 35,000  Level FlightAware Transoceanic
Mon 06:29:00 AM 27.2623 -140.6130 67° East 468 539 35,000  Level FlightAware Transoceanic
Mon 06:30:00 AM 27.3134 -140.4781 67° East 468 539 35,000  Level FlightAware Transoceanic
Mon 06:31:00 AM 27.3644 -140.3431 67° East 468 539 35,000  Level FlightAware Transoceanic
Mon 06:32:00 AM 27.4153 -140.2080 67° East 468 539 35,000  Level FlightAware Transoceanic
Mon 06:33:00 AM 27.4660 -140.0728 67° East 468 539 35,000  Level FlightAware Transoceanic
Mon 06:34:00 AM 27.5166 -139.9374 67° East 468 539 35,000  Level FlightAware Transoceanic
Mon 06:35:00 AM 27.5671 -139.8019 67° East 468 539 35,000  Level FlightAware Transoceanic
Mon 06:36:00 AM 27.6174 -139.6663 67° East 468 539 35,000  Level FlightAware Transoceanic
Mon 06:37:00 AM 27.6676 -139.5306 67° East 468 539 35,000  Level FlightAware Transoceanic
Mon 06:38:00 AM 27.7177 -139.3947 67° East 468 539 35,000  Level FlightAware Transoceanic
Mon 06:39:00 AM 27.7676 -139.2587 67° East 468 539 35,000  Level FlightAware Transoceanic
Mon 06:40:00 AM 27.8174 -139.1226 68° East 468 539 35,000  Level FlightAware Transoceanic
Mon 06:41:00 AM 27.8671 -138.9864 68° East 468 539 35,000  Level FlightAware Transoceanic
Mon 06:42:00 AM 27.9167 -138.8500 68° East 468 539 35,000  Level FlightAware Transoceanic
Mon 06:43:00 AM 27.9667 -138.7117 68° East 468 539 35,000  Level FlightAware Transoceanic
Mon 06:44:00 AM 28.0166 -138.5733 68° East 468 539 35,000  Level FlightAware Transoceanic
Mon 06:45:00 AM 28.0664 -138.4347 68° East 468 539 35,000  Level FlightAware Transoceanic
Mon 06:46:00 AM 28.1160 -138.2960 68° East 468 539 35,000  Level FlightAware Transoceanic
Mon 06:46:31 AM 27.9167 -138.8500 68° East 476 548 35,000  Level Oakland Oceanic (ODAPS)
Mon 06:47:00 AM 28.1655 -138.1572 68° East 468 539 35,000  Level FlightAware Transoceanic
Mon 06:48:00 AM 28.2148 -138.0183 68° East 468 539 35,000  Level FlightAware Transoceanic
Mon 06:49:00 AM 28.2640 -137.8792 68° East 468 539 35,000  Level FlightAware Transoceanic
Mon 06:50:00 AM 28.3131 -137.7400 68° East 468 539 35,000  Level FlightAware Transoceanic
Mon 06:51:00 AM 28.3620 -137.6007 68° East 468 539 35,000  Level FlightAware Transoceanic
Mon 06:52:00 AM 28.4594 -137.3216 68° East 476 548 35,000  Level FlightAware Transoceanic
Mon 06:53:00 AM 28.5079 -137.1819 68° East 476 548 35,000  Level FlightAware Transoceanic
Mon 06:54:00 AM 28.5562 -137.0421 69° East 476 548 35,000  Level FlightAware Transoceanic
Mon 06:55:00 AM 28.6044 -136.9021 69° East 476 548 35,000  Level FlightAware Transoceanic
Mon 06:56:00 AM 28.6525 -136.7620 69° East 476 548 35,000  Level FlightAware Transoceanic
Mon 06:57:00 AM 28.7004 -136.6218 69° East 476 548 35,000  Level FlightAware Transoceanic
Mon 06:58:00 AM 28.7482 -136.4814 69° East 476 548 35,000  Level FlightAware Transoceanic
Mon 06:59:00 AM 28.7958 -136.3409 69° East 476 548 35,000  Level FlightAware Transoceanic
Mon 07:00:00 AM 28.8433 -136.2003 69° East 476 548 35,000  Level FlightAware Transoceanic
Mon 07:01:00 AM 28.8906 -136.0596 69° East 476 548 35,000  Level FlightAware Transoceanic
Mon 07:02:00 AM 28.9378 -135.9187 69° East 476 548 35,000  Level FlightAware Transoceanic
Mon 07:03:00 AM 28.9848 -135.7777 69° East 476 548 35,000  Level FlightAware Transoceanic
Mon 07:04:00 AM 29.0317 -135.6366 69° East 476 548 35,000  Level FlightAware Transoceanic
Mon 07:05:00 AM 29.0785 -135.4953 69° East 476 548 35,000  Level FlightAware Transoceanic
Mon 07:06:00 AM 29.1251 -135.3539 69° East 476 548 35,000  Level FlightAware Transoceanic
Mon 07:07:00 AM 29.1715 -135.2124 69° East 476 548 35,000  Level FlightAware Transoceanic
Mon 07:08:00 AM 29.2178 -135.0708 70° East 476 548 35,000  Level FlightAware Transoceanic
Mon 07:09:00 AM 29.2640 -134.9290 70° East 476 548 35,000  Level FlightAware Transoceanic
Mon 07:10:00 AM 29.3100 -134.7871 70° East 476 548 35,000  Level FlightAware Transoceanic
Mon 07:11:00 AM 29.3559 -134.6451 70° East 476 548 35,000  Level FlightAware Transoceanic
Mon 07:12:00 AM 29.4016 -134.5030 70° East 476 548 35,000  Level FlightAware Transoceanic
Mon 07:13:00 AM 29.4471 -134.3607 70° East 476 548 35,000  Level FlightAware Transoceanic
Mon 07:14:00 AM 29.4925 -134.2183 70° East 476 548 35,000  Level FlightAware Transoceanic
Mon 07:15:00 AM 29.5378 -134.0758 70° East 476 548 35,000  Level FlightAware Transoceanic
Mon 07:16:00 AM 29.5828 -133.9331 70° East 476 548 35,000  Level FlightAware Transoceanic
Mon 07:17:00 AM 29.6278 -133.7903 70° East 476 548 35,000  Level FlightAware Transoceanic
Mon 07:18:00 AM 29.6726 -133.6474 70° East 476 548 35,000  Level FlightAware Transoceanic
Mon 07:19:00 AM 29.7172 -133.5044 70° East 476 548 35,000  Level FlightAware Transoceanic
Mon 07:20:00 AM 29.7617 -133.3612 70° East 476 548 35,000  Level FlightAware Transoceanic
Mon 07:21:00 AM 29.8060 -133.2179 70° East 476 548 35,000  Level FlightAware Transoceanic
Mon 07:22:00 AM 29.8502 -133.0745 70° East 476 548 35,000  Level FlightAware Transoceanic
Mon 07:23:00 AM 29.8942 -132.9309 71° East 476 548 35,000  Level FlightAware Transoceanic
Mon 07:24:00 AM 29.9381 -132.7873 71° East 476 548 35,000  Level FlightAware Transoceanic
Mon 07:25:00 AM 29.9818 -132.6435 71° East 476 548 35,000  Level FlightAware Transoceanic
Mon 07:26:00 AM 30.0253 -132.4995 71° East 476 548 35,000  Level FlightAware Transoceanic
Mon 07:27:00 AM 30.0687 -132.3555 71° East 476 548 35,000  Level FlightAware Transoceanic
Mon 07:28:00 AM 30.1120 -132.2113 71° East 476 548 35,000  Level FlightAware Transoceanic
Mon 07:29:00 AM 30.1551 -132.0670 71° East 476 548 35,000  Level FlightAware Transoceanic
Mon 07:30:00 AM 30.1980 -131.9226 71° East 476 548 35,000  Level FlightAware Transoceanic
Mon 07:31:00 AM 30.2407 -131.7780 71° East 476 548 35,000  Level FlightAware Transoceanic
Mon 07:32:00 AM 30.2833 -131.6333 71° East 476 548 35,000  Level FlightAware Transoceanic
Mon 07:33:00 AM 30.3252 -131.4915 71° East 476 548 35,000  Level FlightAware Transoceanic
Mon 07:33:54 AM 30.2833 -131.6333 71° East 466 536 35,000  Level Oakland Oceanic (ODAPS)
Mon 07:34:00 AM 30.3670 -131.3495 71° East 476 548 35,000  Level FlightAware Transoceanic
Mon 07:35:00 AM 30.4085 -131.2074 71° East 476 548 35,000  Level FlightAware Transoceanic
Mon 07:36:00 AM 30.4500 -131.0652 71° East 476 548 35,000  Level FlightAware Transoceanic
Mon 07:37:00 AM 30.4912 -130.9228 71° East 476 548 35,000  Level FlightAware Transoceanic
Mon 07:38:00 AM 30.5324 -130.7803 72° East 476 548 35,000  Level FlightAware Transoceanic
Mon 07:39:00 AM 30.5733 -130.6378 72° East 476 548 35,000  Level FlightAware Transoceanic
Mon 07:40:00 AM 30.6548 -130.3522 72° East 466 536 35,000  Level FlightAware Transoceanic
Mon 07:41:00 AM 30.6953 -130.2093 72° East 466 536 35,000  Level FlightAware Transoceanic
Mon 07:42:00 AM 30.7356 -130.0662 72° East 466 536 35,000  Level FlightAware Transoceanic
Mon 07:43:00 AM 30.7758 -129.9230 72° East 466 536 35,000  Level FlightAware Transoceanic
Mon 07:44:00 AM 30.8158 -129.7797 72° East 466 536 35,000  Level FlightAware Transoceanic
Mon 07:45:00 AM 30.8557 -129.6363 72° East 466 536 35,000  Level FlightAware Transoceanic
Mon 07:46:00 AM 30.8954 -129.4928 72° East 466 536 35,000  Level FlightAware Transoceanic
Mon 07:47:00 AM 30.9350 -129.3491 72° East 466 536 35,000  Level FlightAware Transoceanic
Mon 07:48:00 AM 30.9743 -129.2053 72° East 466 536 35,000  Level FlightAware Transoceanic
Mon 07:49:00 AM 31.0136 -129.0614 72° East 466 536 35,000  Level FlightAware Transoceanic
Mon 07:50:00 AM 31.0527 -128.9174 72° East 466 536 35,000  Level FlightAware Transoceanic
Mon 07:51:00 AM 31.0916 -128.7733 73° East 466 536 35,000  Level FlightAware Transoceanic
Mon 07:52:00 AM 31.1303 -128.6290 73° East 466 536 35,000  Level FlightAware Transoceanic
Mon 07:53:00 AM 31.1689 -128.4846 73° East 466 536 35,000  Level FlightAware Transoceanic
Mon 07:54:00 AM 31.2073 -128.3401 73° East 466 536 35,000  Level FlightAware Transoceanic
Mon 07:55:00 AM 31.2456 -128.1955 73° East 466 536 35,000  Level FlightAware Transoceanic
Mon 07:56:00 AM 31.2837 -128.0508 73° East 466 536 35,000  Level FlightAware Transoceanic
Mon 07:57:00 AM 31.3217 -127.9060 73° East 466 536 35,000  Level FlightAware Transoceanic
Mon 07:58:00 AM 31.3594 -127.7610 73° East 466 536 35,000  Level FlightAware Transoceanic
Mon 07:59:00 AM 31.3971 -127.6160 73° East 466 536 35,000  Level FlightAware Transoceanic
Mon 08:00:00 AM 31.4345 -127.4708 73° East 466 536 35,000  Level FlightAware Transoceanic
Mon 08:01:00 AM 31.4718 -127.3255 73° East 466 536 35,000  Level FlightAware Transoceanic
Mon 08:02:00 AM 31.5089 -127.1800 73° East 466 536 35,000  Level FlightAware Transoceanic
Mon 08:03:00 AM 31.5459 -127.0345 73° East 466 536 35,000  Level FlightAware Transoceanic
Mon 08:04:00 AM 31.5827 -126.8888 74° East 466 536 35,000  Level FlightAware Transoceanic
Mon 08:05:00 AM 31.6193 -126.7431 74° East 466 536 35,000  Level FlightAware Transoceanic
Mon 08:06:00 AM 31.6558 -126.5972 74° East 466 536 35,000  Level FlightAware Transoceanic
Mon 08:07:00 AM 31.6921 -126.4512 74° East 466 536 35,000  Level FlightAware Transoceanic
Mon 08:08:00 AM 31.7282 -126.3051 74° East 466 536 35,000  Level FlightAware Transoceanic
Mon 08:09:00 AM 31.7642 -126.1589 74° East 466 536 35,000  Level FlightAware Transoceanic
Mon 08:10:00 AM 31.8000 -126.0126 74° East 466 536 35,000  Level FlightAware Transoceanic
Mon 08:11:00 AM 31.8356 -125.8661 74° East 466 536 35,000  Level FlightAware Transoceanic
Mon 08:12:00 AM 31.8711 -125.7195 74° East 466 536 35,000  Level FlightAware Transoceanic
Mon 08:13:00 AM 31.9064 -125.5729 74° East 466 536 35,000  Level FlightAware Transoceanic
Mon 08:14:00 AM 31.9415 -125.4261 74° East 466 536 35,000  Level FlightAware Transoceanic
Mon 08:15:00 AM 31.9765 -125.2792 74° East 466 536 35,000  Level FlightAware Transoceanic
Mon 08:16:00 AM 32.0112 -125.1322 74° East 466 536 35,000  Level FlightAware Transoceanic
Mon 08:17:00 AM 32.0459 -124.9850 75° East 466 536 35,000  Level FlightAware Transoceanic
Mon 08:18:00 AM 32.0803 -124.8378 75° East 466 536 35,000  Level FlightAware Transoceanic
Mon 08:19:00 AM 32.1146 -124.6905 75° East 466 536 35,000  Level FlightAware Transoceanic
Mon 08:20:00 AM 32.1487 -124.5430 75° East 466 536 35,000  Level FlightAware Transoceanic
Mon 08:21:00 AM 32.1826 -124.3955 75° East 466 536 35,000  Level FlightAware Transoceanic
Mon 08:22:00 AM 32.2164 -124.2478 75° East 466 536 35,000  Level FlightAware Transoceanic
Mon 08:23:00 AM 32.2500 -124.1000 77° East 466 536 35,000  Level FlightAware Transoceanic
Mon 08:24:00 AM 32.2776 -123.9628 77° East 466 536 35,000  Level FlightAware Transoceanic
Mon 08:25:00 AM 32.3051 -123.8255 77° East 466 536 35,000  Level FlightAware Transoceanic
Mon 08:26:00 AM 32.3324 -123.6881 77° East 466 536 35,000  Level FlightAware Transoceanic
Mon 08:26:19 AM 32.3025 -123.7211 42° Northeast 444 511 35,000  Level Los Angeles Center
Mon 08:27:00 AM 32.3595 -123.5507 77° East 466 536 35,000  Level FlightAware Transoceanic
Mon 08:27:19 AM 32.3294 -123.5772 77° East 446 513 35,000  Level Los Angeles Center
Mon 08:28:00 AM 32.3865 -123.4131 77° East 466 536 35,000 -100 Level FlightAware Transoceanic
Mon 08:28:19 AM 32.3572 -123.4319 77° East 450 518 34,900  Descending Los Angeles Center
Mon 08:29:00 AM 32.4134 -123.2755 77° East 466 536 35,000 98 Climbing FlightAware Transoceanic
Mon 08:29:20 AM 32.3853 -123.2872 77° East 452 520 35,000  Level Los Angeles Center
Mon 08:30:00 AM 32.4401 -123.1378 77° East 466 536 35,000  Level FlightAware Transoceanic
Mon 08:30:20 AM 32.4125 -123.1442 77° East 451 519 35,000  Level Los Angeles Center
Mon 08:31:00 AM 32.5315 -123.0393 42° Northeast  Level FlightAware Approximate
Mon 08:31:20 AM 32.4419 -122.9997 76° East 451 519 35,000  Level Los Angeles Center
Mon 08:32:21 AM 32.4983 -122.8714 62° Northeast 448 516 35,000  Level Los Angeles Center
Mon 08:33:21 AM 32.5564 -122.7314 64° Northeast 458 527 35,000 -50 Level Los Angeles Center
Mon 08:34:21 AM 32.6186 -122.6003 61° Northeast 460 529 34,900  Descending Los Angeles Center
Mon 08:35:21 AM 32.6808 -122.4678 61° Northeast 459 528 35,000 50 Climbing Los Angeles Center
Mon 08:36:22 AM 32.7425 -122.3364 61° Northeast 459 528 35,000  Level Los Angeles Center
Mon 08:37:22 AM 32.8033 -122.2028 62° Northeast 459 528 35,000  Level Los Angeles Center
Mon 08:38:22 AM 32.8711 -122.0789 57° Northeast 453 521 35,000  Level Los Angeles Center
Mon 08:39:23 AM 32.9306 -121.9464 62° Northeast 453 521 35,000  Level Los Angeles Center
Mon 08:40:23 AM 32.9919 -121.8125 61° Northeast 460 529 35,000  Level Los Angeles Center
Mon 08:41:24 AM 33.0522 -121.6778 62° Northeast 461 531 35,000  Level Los Angeles Center
Mon 08:42:24 AM 33.1131 -121.5461 61° Northeast 458 527 35,000 -50 Level Los Angeles Center
Mon 08:43:24 AM 33.1719 -121.4100 63° Northeast 461 531 34,900  Descending Los Angeles Center
Mon 08:44:25 AM 33.2339 -121.2772 61° Northeast 461 531 35,000 50 Climbing Los Angeles Center
Mon 08:45:25 AM 33.2914 -121.1419 63° Northeast 458 527 35,000  Level Los Angeles Center
Mon 08:46:25 AM 33.3522 -121.0072 62° Northeast 460 529 35,000  Level Los Angeles Center
Mon 08:47:26 AM 33.4114 -120.8717 62° Northeast 461 531 35,000  Level Los Angeles Center
Mon 08:48:26 AM 33.4697 -120.7383 62° Northeast 457 526 35,000  Level Los Angeles Center
Mon 08:49:26 AM 33.5275 -120.6039 63° Northeast 456 525 35,000  Level Los Angeles Center
Mon 08:50:27 AM 33.5869 -120.4692 62° Northeast 457 526 35,000  Level Los Angeles Center
Mon 08:51:27 AM 33.6444 -120.3353 63° Northeast 456 525 35,000  Level Los Angeles Center
Mon 08:52:28 AM 33.7019 -120.2011 63° Northeast 455 524 35,000  Level Los Angeles Center
Mon 08:53:40 AM 33.7725 -120.0389 62° Northeast 459 528 35,000  Level Los Angeles Center
Mon 08:54:41 AM 33.8436 -119.8764 62° Northeast 459 528 35,000 -50 Level Los Angeles Center
Mon 08:55:41 AM 33.9031 -119.7406 62° Northeast 460 529 34,900  Descending Los Angeles Center
Mon 08:56:41 AM 33.9603 -119.6050 63° Northeast 455 524 35,000 50 Climbing Los Angeles Center
Mon 08:57:42 AM 34.0186 -119.4672 63° Northeast 459 528 35,000  Level Los Angeles Center
Mon 08:58:42 AM 34.0644 -119.3586 63° Northeast 457 526 35,000  Level Los Angeles Center
Mon 08:59:43 AM 34.1336 -119.1917 63° Northeast 463 533 35,000  Level Los Angeles Center
Mon 09:00:45 AM 34.1897 -119.0531 64° Northeast 459 528 35,000  Level Los Angeles Center
Mon 09:01:44 AM 34.2475 -118.9125 64° Northeast 466 536 35,000  Level Los Angeles Center
Mon 09:02:44 AM 34.3056 -118.7725 63° Northeast 465 535 35,000  Level Los Angeles Center
Mon 09:03:45 AM 34.3642 -118.6317 63° Northeast 466 536 35,000  Level Los Angeles Center
Mon 09:04:45 AM 34.4222 -118.4911 63° Northeast 465 535 35,000  Level Los Angeles Center
Mon 09:05:47 AM 34.4803 -118.3525 63° Northeast 463 533 35,000  Level Los Angeles Center
Mon 09:06:47 AM 34.5381 -118.2122 63° Northeast 464 534 35,000  Level Los Angeles Center
Mon 09:07:47 AM 34.5883 -118.0878 64° Northeast 460 529 35,000  Level Los Angeles Center
Mon 09:08:48 AM 34.6442 -117.9486 64° Northeast 460 529 35,000  Level Los Angeles Center
Mon 09:09:49 AM 34.7111 -117.7833 64° Northeast 459 528 35,000  Level Los Angeles Center
Mon 09:10:49 AM 34.7653 -117.6433 65° Northeast 460 529 35,000 347 Level Los Angeles Center
Mon 09:11:50 AM 34.8214 -117.5036 64° Northeast 464 534 35,700 738 Climbing Los Angeles Center
Mon 09:12:51 AM 34.8658 -117.3914 64° Northeast 464 534 36,500 639 Climbing Los Angeles Center
Mon 09:13:52 AM 34.9319 -117.2219 65° Northeast 468 539 37,000 248 Climbing Los Angeles Center
Mon 09:14:52 AM 34.9867 -117.0861 64° Northeast 452 520 37,000  Level Los Angeles Center
Mon 09:15:53 AM 35.0406 -116.9486 64° Northeast 454 522 37,000  Level Los Angeles Center
Mon 09:16:54 AM 35.0958 -116.8083 64° Northeast 460 529 37,000  Level Los Angeles Center
Mon 09:17:55 AM 35.1489 -116.6689 65° Northeast 457 526 37,000  Level Los Angeles Center
Mon 09:18:56 AM 35.2147 -116.5006 64° Northeast 459 528 37,000  Level Los Angeles Center
Mon 09:19:57 AM 35.2700 -116.3594 64° Northeast 461 531 37,000  Level Los Angeles Center
Mon 09:20:58 AM 35.3244 -116.2167 65° Northeast 462 532 37,000  Level Los Angeles Center
Mon 09:21:59 AM 35.3769 -116.0711 66° East 468 539 37,000  Level Los Angeles Center
Mon 09:23:04 AM 35.4325 -115.9269 65° Northeast 469 540 37,000  Level Los Angeles Center
Mon 09:24:13 AM 35.4997 -115.7581 64° Northeast 459 528 37,000  Level Los Angeles Center
Mon 09:25:14 AM 35.5544 -115.6144 65° Northeast 461 531 37,000  Level Los Angeles Center
Mon 09:26:16 AM 35.6094 -115.4683 65° Northeast 468 539 37,000  Level Los Angeles Center
Mon 09:27:17 AM 35.6639 -115.3228 65° Northeast 471 542 37,000  Level Los Angeles Center
Mon 09:28:18 AM 35.7292 -115.1483 65° Northeast 471 542 37,000  Level Los Angeles Center
Mon 09:29:19 AM 35.7803 -115.0033 66° East 468 539 37,000  Level Los Angeles Center
Mon 09:30:20 AM 35.8322 -114.8583 66° East 465 535 37,000  Level Los Angeles Center
Mon 09:31:21 AM 35.8847 -114.7144 66° East 463 533 37,000  Level Los Angeles Center
Mon 09:32:34 AM 35.9372 -114.5689 66° East 465 535 37,000  Level Los Angeles Center
Mon 09:33:36 AM 36.0000 -114.3933 66° East 467 537 37,000  Level Los Angeles Center
Mon 09:34:49 AM 36.0519 -114.2492 66° East 463 533 37,000  Level Los Angeles Center
Mon 09:35:51 AM 36.1156 -114.0747 66° East 464 534 37,000  Level Los Angeles Center
Mon 09:36:52 AM 36.1678 -113.9292 66° East 464 534 37,000  Level Los Angeles Center
Mon 09:37:53 AM 36.2289 -113.7550 66° East 462 532 37,000  Level Los Angeles Center
Mon 09:38:55 AM 36.2806 -113.6108 66° East 459 528 37,000  Level Los Angeles Center
Mon 09:40:00 AM 36.3343 -113.4540 67° East  Level FlightAware Approximate
Mon 09:40:08 AM 36.3408 -113.4372 67° East 458 527 37,000  Level Los Angeles Center
Mon 09:42:11 AM 36.4394 -113.1567 66° East 456 525 37,000  Level Los Angeles Center
Mon 09:43:12 AM 36.4892 -113.0114 67° East 458 527 37,000  Level Los Angeles Center
Mon 09:44:14 AM 36.5392 -112.8678 67° East 456 525 37,000  Level Los Angeles Center
Mon 09:45:15 AM 36.5986 -112.6950 67° East 456 525 37,000  Level Los Angeles Center
Mon 09:46:17 AM 36.6492 -112.5508 66° East 456 525 37,000  Level Los Angeles Center
Mon 09:47:18 AM 36.6986 -112.4061 67° East 457 526 37,000  Level Los Angeles Center
Mon 09:48:20 AM 36.7492 -112.2592 67° East 461 531 37,000  Level Los Angeles Center
Mon 09:49:21 AM 36.7978 -112.1142 67° East 459 528 37,000  Level Los Angeles Center
Mon 09:50:23 AM 36.8464 -111.9667 68° East 461 531 37,000  Level Los Angeles Center
Mon 09:51:36 AM 36.8953 -111.8222 67° East 457 526 37,000  Level Los Angeles Center
Mon 09:52:38 AM 36.9625 -111.6192 67° East 454 522 37,000  Level Los Angeles Center
Mon 09:53:13 AM 36.9914 -111.5322 67° East 455 524 37,000  Level Denver Center
Mon 09:54:14 AM 37.0375 -111.3894 68° East 449 517 37,000  Level Denver Center
Mon 09:55:16 AM 37.0831 -111.2450 68° East 449 517 37,000  Level Denver Center
Mon 09:56:17 AM 37.1306 -111.1006 68° East 450 518 37,000  Level Denver Center
Mon 09:57:31 AM 37.1769 -110.9569 68° East 448 516 37,000  Level Denver Center
Mon 09:58:32 AM 37.2331 -110.7831 68° East 449 517 37,000  Level Denver Center
Mon 09:59:34 AM 37.2800 -110.6383 68° East 448 516 37,000  Level Denver Center
Mon 10:00:35 AM 37.3261 -110.4928 68° East 450 518 37,000  Level Denver Center
Mon 10:02:38 AM 37.4236 -110.1842 68° East 450 518 37,000  Level Denver Center
Mon 10:03:40 AM 37.4756 -110.0206 68° East 450 518 37,000  Level Denver Center
Mon 10:04:41 AM 37.5183 -109.8794 69° East 450 518 37,000  Level Denver Center
Mon 10:05:43 AM 37.5628 -109.7389 68° East 450 518 37,000  Level Denver Center
Mon 10:07:00 AM 37.6184 -109.5460 70° East  Level FlightAware Approximate
Mon 10:08:47 AM 37.7064 -109.2725 58° Northeast 446 513 37,000  Level Denver Center
Mon 10:09:49 AM 37.7486 -109.1319 69° East 446 513 37,000  Level Denver Center
Mon 10:10:50 AM 37.7908 -108.9906 69° East 448 516 37,000  Level Denver Center
Mon 10:11:52 AM 37.8561 -108.8369 62° Northeast 441 507 37,000  Level Denver Center
Mon 10:12:53 AM 37.9169 -108.7083 59° Northeast 443 510 37,000  Level Denver Center
Mon 10:13:55 AM 37.9906 -108.5578 58° Northeast 448 516 37,000  Level Denver Center
Mon 10:14:00 AM 37.9879 -108.5315 58° Northeast  Level FlightAware Approximate
Mon 10:14:57 AM 38.0519 -108.4300 59° Northeast 445 512 37,000  Level Denver Center
Mon 10:15:58 AM 38.1186 -108.2894 59° Northeast 448 516 37,000  Level Denver Center
Mon 10:17:00 AM 38.1800 -108.1644 58° Northeast 441 507 37,000  Level Denver Center
Mon 10:18:02 AM 38.2503 -108.0156 59° Northeast 441 507 37,000  Level Denver Center
Mon 10:19:04 AM 38.3114 -107.8867 59° Northeast 443 510 37,000  Level Denver Center
Mon 10:20:05 AM 38.3817 -107.7403 58° Northeast 436 502 37,000  Level Denver Center
Mon 10:21:07 AM 38.4406 -107.6139 59° Northeast 436 502 37,000  Level Denver Center
Mon 10:22:09 AM 38.5092 -107.4642 60° Northeast 437 503 37,000  Level Denver Center
Mon 10:23:11 AM 38.5658 -107.3344 61° Northeast 438 504 37,000  Level Denver Center
Mon 10:24:13 AM 38.6322 -107.1853 60° Northeast 435 501 37,000  Level Denver Center
Mon 10:25:15 AM 38.6933 -107.0486 60° Northeast 435 501 37,000  Level Denver Center
Mon 10:27:18 AM 38.8119 -106.7831 60° Northeast 433 498 37,000  Level Denver Center
Mon 10:28:20 AM 38.8714 -106.6503 60° Northeast 432 497 37,000 -435 Level Denver Center
Mon 10:29:22 AM 38.9386 -106.5056 59° Northeast 430 495 36,100 -1,742 Descending Denver Center
Mon 10:30:24 AM 38.9972 -106.3800 59° Northeast 428 493 33,400 -2,903 Descending Denver Center
Mon 10:31:26 AM 39.0656 -106.2289 60° Northeast 436 502 30,100 -2,226 Descending Denver Center
Mon 10:32:28 AM 39.1261 -106.0956 60° Northeast 428 493 28,800 -1,694 Descending Denver Center
Mon 10:33:30 AM 39.1794 -105.9744 60° Northeast 396 456 26,600 -2,081 Descending Denver Center
Mon 10:34:32 AM 39.2319 -105.8536 61° Northeast 388 447 24,500 -1,978 Descending Denver Center
Mon 10:36:32 AM 39.3333 -105.6167 61° Northeast 355 409 20,600 -1,800 Descending Denver TRACON
Mon 10:37:32 AM 39.3833 -105.5000 61° Northeast 343 395 19,100 -1,350 Descending Denver TRACON
Mon 10:38:32 AM 39.4000 -105.3833 79° East 331 381 17,900 -1,108 Descending Denver TRACON
Mon 10:39:42 AM 39.4053 -105.2536 87° East 323 372 16,700 -1,227 Descending Denver Center
Mon 10:40:44 AM 39.4097 -105.1419 87° East 315 362 15,200 -1,161 Descending Denver Center
Mon 10:41:46 AM 39.4150 -105.0286 87° East 298 343 14,300 -1,065 Descending Denver Center
Mon 10:42:48 AM 39.4400 -104.9403 70° East 273 314 13,000 -1,210 Descending Denver Center
Mon 10:43:50 AM 39.4886 -104.8594 52° Northeast 266 306 11,800 -1,016 Descending Denver Center
Mon 10:44:52 AM 39.5475 -104.8117 32° Northeast 250 288 10,900 -1,016 Descending Denver Center
Mon 10:45:54 AM 39.6133 -104.7794 21° North 237 273 9,700 -1,113 Descending Denver Center
Mon 10:46:56 AM 39.6739 -104.7461 23° Northeast 237 273 8,600 -1,065 Descending Denver Center

Login

Don't have an account? Register now (free) for customized features, flight alerts, and more!